Bella Bella, Canada
Current Conditions -  °F | °C
As of 9:11 AM on Saturday 25 Oct 2014 (Local Time) from CBBC Reporting Station
Haze Haze  
Wind Chill: 37°   Ceiling: 200
Heat Index: 37°   Visibility: 2.5mi
Dew Point: 36°   Wind: 2mph
Humidity: 93%   Direction: 340°NNW
Pressure: 29.57"   Gusts: NA
Location:  52.15°N, 128.13°W
Report Text: CBBC 251611Z AUTO 34002KT 2 1/2SM BR BKN002 03/02 A2957 RMK SLP015
Loading
Personal Weather Stations






























Interactive Weather Map
Tropical Storm Tracking
New forecast layout! Learn more

10-Day Weather Forecast

Advertisements
Track Severe Weather on mobile